Time;durP1;ratioP1;P1;durP2;ratioP2;P2;SDS_P1;SDS_P2;PMS_P1;PMS_P2;Temp;Humidity;BMP_temperature;BMP_pressure;BME280_temperature;BME280_humidity;BME280_pressure;Samples;Min_cycle;Max_cycle;Signal;HPM_P1;HPM_P2
2023/01/25 00:01:38;;;;;;;12.55;7.43;;;21.70;57.50;;;;;;5093126;28;20249;-62
2023/01/25 00:04:27;;;;;;;14.25;8.00;;;21.70;57.40;;;;;;5094060;28;20535;-62
2023/01/25 00:07:15;;;;;;;10.55;7.13;;;21.60;57.40;;;;;;5093395;28;20277;-62
2023/01/25 00:10:03;;;;;;;11.32;7.25;;;21.70;57.50;;;;;;5093425;28;20200;-62
2023/01/25 00:12:51;;;;;;;9.60;7.00;;;21.50;57.30;;;;;;5093558;28;20208;-62
2023/01/25 00:15:41;;;;;;;10.43;6.97;;;21.60;57.60;;;;;;5093783;28;20227;-62
2023/01/25 00:18:29;;;;;;;13.13;7.68;;;21.60;57.40;;;;;;5094490;28;20202;-62
2023/01/25 00:21:19;;;;;;;13.15;7.40;;;21.60;57.50;;;;;;5093800;28;20712;-61
2023/01/25 00:24:10;;;;;;;13.43;7.88;;;21.60;57.50;;;;;;5094925;28;20216;-61
2023/01/25 00:26:58;;;;;;;12.38;7.07;;;21.70;57.50;;;;;;5092836;28;20257;-60
2023/01/25 00:29:47;;;;;;;11.38;7.38;;;21.60;57.40;;;;;;5093145;28;20203;-63
2023/01/25 00:32:53;;;;;;;12.30;7.35;;;21.70;57.40;;;;;;5093874;28;20208;-62
2023/01/25 00:35:41;;;;;;;10.98;7.45;;;21.70;57.50;;;;;;5093041;28;20280;-62
2023/01/25 00:38:33;;;;;;;10.35;6.90;;;21.70;57.40;;;;;;5092369;28;20275;-62
2023/01/25 00:41:21;;;;;;;11.25;6.28;;;21.80;57.40;;;;;;5093331;28;20281;-62
2023/01/25 00:44:09;;;;;;;11.30;7.10;;;21.70;57.20;;;;;;5092208;28;20220;-62
2023/01/25 00:46:57;;;;;;;11.70;7.82;;;21.80;57.20;;;;;;5093430;28;20222;-63
2023/01/25 00:49:47;;;;;;;11.48;6.93;;;21.80;57.30;;;;;;5093032;28;20782;-62
2023/01/25 00:52:35;;;;;;;8.70;6.45;;;21.70;57.20;;;;;;5092829;28;20214;-63
2023/01/25 00:55:23;;;;;;;11.85;7.43;;;21.70;56.70;;;;;;5092862;28;20695;-60
2023/01/25 00:58:11;;;;;;;11.10;7.10;;;21.70;57.20;;;;;;5092383;28;20277;-63
2023/01/25 01:00:59;;;;;;;11.52;7.20;;;21.80;57.20;;;;;;5092422;28;20200;-63
2023/01/25 01:03:47;;;;;;;8.85;6.68;;;21.70;57.10;;;;;;5092355;28;20216;-60
2023/01/25 01:06:37;;;;;;;10.27;6.50;;;21.70;57.20;;;;;;5093501;28;20247;-62
2023/01/25 01:09:25;;;;;;;12.18;6.95;;;21.70;57.20;;;;;;5093489;28;20207;-61
2023/01/25 01:12:13;;;;;;;10.10;7.22;;;21.70;57.20;;;;;;5092961;28;20265;-61
2023/01/25 01:15:01;;;;;;;8.52;6.97;;;21.70;57.20;;;;;;5093059;28;20342;-61
2023/01/25 01:17:49;;;;;;;10.90;7.00;;;21.70;57.20;;;;;;5092916;28;20687;-61
2023/01/25 01:20:37;;;;;;;9.70;6.97;;;21.60;57.20;;;;;;5092469;28;20195;-60
2023/01/25 01:23:28;;;;;;;8.82;6.90;;;21.70;57.30;;;;;;5092066;28;20216;-62
2023/01/25 01:26:18;;;;;;;12.77;6.85;;;21.60;57.30;;;;;;5092761;28;20283;-62
2023/01/25 01:29:06;;;;;;;10.20;6.75;;;21.70;57.90;;;;;;5092261;28;20345;-63
2023/01/25 01:31:55;;;;;;;9.55;6.82;;;21.70;57.30;;;;;;5092377;28;20644;-62
2023/01/25 01:34:43;;;;;;;8.63;6.32;;;21.80;57.40;;;;;;5092370;28;20223;-61
2023/01/25 01:37:31;;;;;;;10.30;7.15;;;21.70;57.20;;;;;;5092356;28;20226;-60
2023/01/25 01:40:21;;;;;;;10.77;6.97;;;21.70;57.30;;;;;;5091596;28;20200;-61
2023/01/25 01:43:18;;;;;;;7.70;6.38;;;21.70;57.20;;;;;;5090728;28;20281;-63
2023/01/25 01:46:11;;;;;;;11.23;6.63;;;21.80;57.30;;;;;;5092288;28;20612;-62
2023/01/25 01:49:04;;;;;;;8.20;6.43;;;21.80;57.20;;;;;;5091633;28;20322;-62
2023/01/25 01:51:57;;;;;;;9.45;6.65;;;21.80;57.20;;;;;;5092160;28;20745;-61
2023/01/25 01:54:49;;;;;;;10.80;7.07;;;21.80;57.20;;;;;;5091473;28;20588;-60
2023/01/25 01:57:42;;;;;;;8.77;6.72;;;21.80;57.10;;;;;;5092160;28;20720;-60
2023/01/25 02:00:34;;;;;;;9.02;6.57;;;21.70;57.00;;;;;;5092490;28;20204;-60
2023/01/25 02:03:23;;;;;;;10.88;6.70;;;21.80;57.20;;;;;;5091833;28;20230;-60
2023/01/25 02:06:15;;;;;;;7.20;5.88;;;21.70;57.20;;;;;;5091070;28;20199;-60
2023/01/25 02:09:03;;;;;;;9.35;6.40;;;21.70;57.20;;;;;;5090947;28;20220;-63
2023/01/25 02:11:52;;;;;;;9.48;6.25;;;21.70;57.30;;;;;;5092741;28;20233;-63
2023/01/25 02:14:47;;;;;;;7.68;5.70;;;21.70;57.30;;;;;;5090792;28;20251;-60
2023/01/25 02:17:38;;;;;;;10.32;6.93;;;21.80;57.40;;;;;;5092236;28;20241;-60
2023/01/25 02:20:34;;;;;;;10.02;6.15;;;21.80;57.40;;;;;;5090294;28;20688;-60
2023/01/25 02:23:29;;;;;;;10.18;6.60;;;21.70;57.30;;;;;;5088316;28;20229;-60
2023/01/25 02:26:19;;;;;;;8.43;6.05;;;21.80;57.30;;;;;;5070708;28;20350;-60
2023/01/25 02:29:08;;;;;;;7.95;6.15;;;21.80;57.20;;;;;;5071052;28;20295;-61
2023/01/25 02:32:00;;;;;;;8.07;6.13;;;21.80;57.20;;;;;;5071901;28;20659;-60
2023/01/25 02:34:48;;;;;;;8.95;6.32;;;21.80;57.10;;;;;;5071406;28;20232;-61
2023/01/25 02:37:36;;;;;;;11.15;6.78;;;21.80;57.10;;;;;;5071207;28;20334;-60
2023/01/25 02:40:24;;;;;;;9.18;6.85;;;21.80;57.20;;;;;;5071827;28;20234;-60
2023/01/25 02:43:15;;;;;;;9.73;6.10;;;21.70;57.20;;;;;;5071443;28;20220;-60
2023/01/25 02:46:11;;;;;;;7.55;5.57;;;21.70;57.30;;;;;;5072077;28;20611;-61
2023/01/25 02:49:00;;;;;;;10.40;5.57;;;21.80;57.20;;;;;;5071388;28;20228;-62
2023/01/25 02:51:50;;;;;;;7.20;5.93;;;21.80;57.10;;;;;;5071215;28;20207;-63
2023/01/25 02:54:38;;;;;;;7.03;5.53;;;21.80;57.20;;;;;;5072200;28;20220;-62
2023/01/25 02:57:26;;;;;;;8.95;6.63;;;21.80;57.30;;;;;;5072130;28;20228;-61
2023/01/25 03:00:17;;;;;;;8.70;6.35;;;21.80;57.30;;;;;;5070434;28;20361;-61
2023/01/25 03:03:05;;;;;;;7.80;5.85;;;22.00;61.00;;;;;;5070600;28;20224;-62
2023/01/25 03:05:53;;;;;;;9.93;6.32;;;21.90;57.20;;;;;;5071628;28;20270;-60
2023/01/25 03:08:41;;;;;;;9.25;6.68;;;21.80;57.10;;;;;;5070298;28;20216;-63
2023/01/25 03:11:29;;;;;;;6.90;5.40;;;21.90;57.20;;;;;;5070730;28;20756;-60
2023/01/25 03:14:18;;;;;;;9.77;6.85;;;21.90;57.20;;;;;;5070893;28;20266;-60
2023/01/25 03:17:07;;;;;;;7.97;6.40;;;21.90;57.20;;;;;;5070955;28;20641;-60
2023/01/25 03:19:55;;;;;;;10.23;6.25;;;21.90;57.20;;;;;;5072014;28;20646;-60
2023/01/25 03:22:43;;;;;;;8.05;6.15;;;21.90;57.20;;;;;;5075634;28;20262;-62
2023/01/25 03:25:31;;;;;;;9.50;5.95;;;21.90;57.20;;;;;;5073828;28;20211;-63
2023/01/25 03:28:19;;;;;;;7.22;6.38;;;21.90;57.10;;;;;;5074122;28;20209;-62
2023/01/25 03:31:08;;;;;;;8.68;6.32;;;21.90;57.10;;;;;;5075018;28;20284;-62
2023/01/25 03:33:58;;;;;;;7.22;6.45;;;21.90;57.10;;;;;;5075274;28;20358;-62
2023/01/25 03:36:46;;;;;;;6.47;5.78;;;21.90;57.20;;;;;;5074593;28;20197;-61
2023/01/25 03:39:34;;;;;;;7.47;5.78;;;21.90;57.20;;;;;;5074804;28;20192;-62
2023/01/25 03:42:23;;;;;;;8.63;6.40;;;21.90;57.20;;;;;;5074463;28;20250;-61
2023/01/25 03:45:13;;;;;;;8.00;5.97;;;21.90;57.10;;;;;;5073921;28;20240;-61
2023/01/25 03:48:01;;;;;;;8.25;5.85;;;21.90;57.10;;;;;;5074945;28;20289;-61
2023/01/25 03:50:51;;;;;;;7.75;6.30;;;21.80;57.00;;;;;;5073662;28;20207;-61
2023/01/25 03:53:39;;;;;;;6.60;5.97;;;21.70;57.00;;;;;;5074113;28;20636;-61
2023/01/25 03:56:27;;;;;;;7.53;6.32;;;21.70;57.10;;;;;;5074110;28;20331;-61
2023/01/25 03:59:15;;;;;;;8.15;6.65;;;21.70;57.20;;;;;;5073904;28;20782;-61
2023/01/25 04:02:04;;;;;;;7.22;5.70;;;21.70;57.20;;;;;;5074466;28;20208;-61
2023/01/25 04:04:52;;;;;;;8.80;5.78;;;21.70;57.30;;;;;;5074326;28;20259;-61
2023/01/25 04:07:42;;;;;;;6.78;6.07;;;21.70;57.40;;;;;;5074109;28;20255;-61
2023/01/25 04:10:30;;;;;;;10.05;5.85;;;21.70;57.30;;;;;;5074267;28;20281;-62
2023/01/25 04:13:18;;;;;;;6.75;5.43;;;21.70;57.40;;;;;;5073570;28;20755;-60
2023/01/25 04:16:08;;;;;;;7.18;5.80;;;21.70;57.40;;;;;;5072586;28;20279;-60
2023/01/25 04:18:56;;;;;;;8.43;6.55;;;21.70;57.40;;;;;;5073529;28;20197;-61
2023/01/25 04:21:44;;;;;;;10.07;6.47;;;21.70;57.30;;;;;;5074120;28;20322;-60
2023/01/25 04:24:33;;;;;;;9.23;6.38;;;21.80;57.30;;;;;;5073379;28;20336;-61
2023/01/25 04:27:21;;;;;;;9.98;6.25;;;21.70;57.10;;;;;;5073750;28;20677;-62
2023/01/25 04:30:10;;;;;;;8.30;5.97;;;21.80;57.20;;;;;;5073814;28;20224;-62
2023/01/25 04:33:02;;;;;;;6.95;5.55;;;21.60;61.60;;;;;;5073384;28;20196;-61
2023/01/25 04:35:51;;;;;;;6.90;5.78;;;21.70;57.30;;;;;;5073318;28;20201;-60
2023/01/25 04:38:39;;;;;;;6.53;5.15;;;21.70;57.50;;;;;;5073607;28;20291;-61
2023/01/25 04:41:28;;;;;;;7.60;5.63;;;21.70;57.40;;;;;;5073977;28;20205;-62
2023/01/25 04:44:16;;;;;;;8.30;5.25;;;21.80;57.50;;;;;;5073558;28;20301;-60
2023/01/25 04:47:04;;;;;;;7.38;5.30;;;21.80;58.10;;;;;;5073670;28;20207;-61
2023/01/25 04:49:52;;;;;;;5.82;5.25;;;21.80;57.30;;;;;;5072733;28;20790;-61
2023/01/25 04:52:40;;;;;;;7.28;5.05;;;21.90;57.40;;;;;;5073333;28;20205;-61
2023/01/25 04:55:28;;;;;;;8.73;5.38;;;21.90;57.40;;;;;;5073746;28;20197;-61
2023/01/25 04:58:21;;;;;;;7.13;4.95;;;21.90;57.30;;;;;;5073358;28;20208;-60
2023/01/25 05:01:10;;;;;;;6.88;5.10;;;21.90;57.30;;;;;;5071978;28;20258;-62
2023/01/25 05:03:58;;;;;;;5.75;4.88;;;22.00;57.40;;;;;;5073048;28;20216;-62
2023/01/25 05:06:46;;;;;;;6.15;4.90;;;22.00;57.30;;;;;;5072884;28;20201;-61
2023/01/25 05:09:34;;;;;;;7.90;5.15;;;22.00;57.20;;;;;;5072340;28;20220;-61
2023/01/25 05:12:22;;;;;;;5.93;4.68;;;22.00;57.20;;;;;;5072431;28;20203;-62
2023/01/25 05:15:11;;;;;;;6.05;5.07;;;21.90;57.10;;;;;;5072640;28;20802;-60
2023/01/25 05:17:59;;;;;;;5.40;4.88;;;22.00;57.20;;;;;;5072628;28;20200;-62
2023/01/25 05:20:47;;;;;;;5.85;5.25;;;22.00;57.20;;;;;;5072783;28;20551;-62
2023/01/25 05:23:35;;;;;;;7.13;5.05;;;22.00;57.30;;;;;;5071684;28;20692;-62
2023/01/25 05:29:31;;;;;;;8.27;5.85;;;21.90;57.10;;;;;;5071388;28;20247;-62
2023/01/25 05:32:22;;;;;;;6.30;4.80;;;21.90;57.20;;;;;;5072260;28;20254;-62
2023/01/25 05:35:10;;;;;;;7.85;4.95;;;21.90;57.10;;;;;;5072089;28;20704;-62
2023/01/25 05:37:59;;;;;;;9.60;5.00;;;21.90;57.20;;;;;;5072835;28;20204;-62
2023/01/25 05:40:47;;;;;;;7.57;5.63;;;21.90;57.30;;;;;;5072963;28;20574;-62
2023/01/25 05:43:35;;;;;;;5.25;4.65;;;21.90;57.40;;;;;;5071517;28;20303;-62
2023/01/25 05:46:23;;;;;;;6.10;4.80;;;21.80;57.30;;;;;;5072661;28;20586;-62
2023/01/25 05:49:12;;;;;;;6.22;5.00;;;21.80;57.30;;;;;;5071394;28;20201;-62
2023/01/25 05:52:00;;;;;;;6.32;4.97;;;21.80;57.30;;;;;;5071980;28;20207;-62
2023/01/25 05:54:49;;;;;;;5.95;4.80;;;21.70;57.30;;;;;;5071244;28;20704;-62
2023/01/25 05:57:37;;;;;;;5.60;4.43;;;21.80;57.40;;;;;;5071943;28;20284;-62
2023/01/25 06:00:25;;;;;;;6.95;4.53;;;21.70;57.40;;;;;;5071041;28;20304;-62
2023/01/25 06:03:13;;;;;;;6.03;4.47;;;21.70;57.40;;;;;;5070838;28;20243;-62
2023/01/25 06:06:03;;;;;;;5.55;4.53;;;21.80;57.40;;;;;;5072262;28;20200;-62
2023/01/25 06:08:51;;;;;;;6.82;4.43;;;21.80;57.50;;;;;;5072383;28;20702;-62
2023/01/25 06:11:39;;;;;;;9.02;4.80;;;21.80;57.50;;;;;;5071869;28;20207;-62
2023/01/25 06:14:27;;;;;;;8.02;4.65;;;21.90;57.50;;;;;;5071275;28;20303;-62
2023/01/25 06:17:15;;;;;;;21.80;6.75;;;21.90;57.30;;;;;;5070891;28;20193;-62
2023/01/25 06:20:04;;;;;;;13.65;5.60;;;21.90;57.30;;;;;;5070761;28;20200;-62
2023/01/25 06:22:54;;;;;;;11.35;5.63;;;22.20;59.40;;;;;;5070918;28;20759;-62
2023/01/25 06:25:42;;;;;;;13.13;5.57;;;21.90;57.20;;;;;;5070913;28;20204;-62
2023/01/25 06:28:31;;;;;;;5.68;4.40;;;21.90;57.20;;;;;;5071781;28;20240;-62
2023/01/25 06:31:19;;;;;;;18.05;5.50;;;21.90;57.20;;;;;;5071026;28;20224;-62
2023/01/25 06:34:08;;;;;;;8.68;5.68;;;21.90;57.20;;;;;;5071281;28;20231;-62
2023/01/25 06:36:56;;;;;;;10.80;5.32;;;22.00;57.30;;;;;;5062986;28;20616;-62
2023/01/25 06:39:45;;;;;;;8.98;4.82;;;22.00;57.30;;;;;;5070751;28;20314;-62
2023/01/25 06:42:33;;;;;;;9.30;4.25;;;22.00;57.20;;;;;;5077354;28;20196;-62
2023/01/25 06:45:21;;;;;;;9.60;4.97;;;22.00;57.20;;;;;;5081488;28;20200;-62
2023/01/25 06:48:09;;;;;;;9.77;5.03;;;22.00;57.20;;;;;;5090159;28;20204;-62
2023/01/25 06:51:01;;;;;;;6.78;4.63;;;22.00;57.80;;;;;;5089761;28;20574;-62
2023/01/25 06:53:49;;;;;;;9.85;5.13;;;22.00;57.40;;;;;;5081058;28;20269;-62
2023/01/25 06:56:38;;;;;;;9.57;4.55;;;22.00;57.40;;;;;;5083810;28;20675;-62
2023/01/25 06:59:27;;;;;;;12.45;5.20;;;22.00;57.30;;;;;;5075082;28;20232;-62
2023/01/25 07:02:15;;;;;;;7.60;4.50;;;22.00;57.40;;;;;;5081499;28;20200;-62
2023/01/25 07:05:04;;;;;;;8.00;4.88;;;22.00;57.50;;;;;;5079670;28;20232;-62
2023/01/25 07:07:52;;;;;;;8.65;4.82;;;22.00;57.40;;;;;;5078313;28;20214;-62
2023/01/25 07:10:40;;;;;;;9.82;5.00;;;21.90;57.30;;;;;;5075343;28;20917;-62
2023/01/25 07:13:31;;;;;;;7.40;4.63;;;22.00;57.50;;;;;;5074578;28;20221;-62
2023/01/25 07:16:20;;;;;;;9.32;5.10;;;21.90;57.40;;;;;;5074427;28;20317;-62
2023/01/25 07:19:12;;;;;;;6.80;4.35;;;22.00;57.50;;;;;;5074787;28;20200;-62
2023/01/25 07:22:00;;;;;;;11.25;4.70;;;22.00;57.50;;;;;;5092035;28;20199;-62
2023/01/25 07:24:51;;;;;;;7.43;4.68;;;22.00;57.50;;;;;;5094761;28;20726;-62
2023/01/25 07:27:39;;;;;;;10.60;4.97;;;21.90;57.40;;;;;;5093778;28;20204;-62
2023/01/25 07:30:28;;;;;;;8.38;4.60;;;21.90;57.50;;;;;;5093382;28;20299;-63
2023/01/25 07:33:16;;;;;;;6.68;4.65;;;21.90;57.60;;;;;;5076602;28;20228;-62
2023/01/25 07:36:07;;;;;;;11.45;5.05;;;21.90;57.70;;;;;;5073866;28;20193;-62
2023/01/25 07:38:56;;;;;;;6.13;4.75;;;21.90;57.80;;;;;;5075062;28;20205;-61
2023/01/25 07:41:44;;;;;;;6.85;4.88;;;21.90;57.80;;;;;;5073864;28;20224;-63
2023/01/25 07:44:32;;;;;;;6.50;4.18;;;21.90;57.70;;;;;;5073901;28;20712;-62
2023/01/25 07:47:21;;;;;;;8.48;4.22;;;21.90;57.70;;;;;;5078431;28;20211;-62
2023/01/25 07:50:11;;;;;;;8.95;4.75;;;22.00;57.80;;;;;;5079619;28;20362;-61
2023/01/25 07:52:59;;;;;;;7.10;4.43;;;22.10;62.00;;;;;;5073731;28;20201;-62
2023/01/25 07:55:47;;;;;;;8.45;4.40;;;22.00;57.80;;;;;;5073391;28;20311;-63
2023/01/25 07:58:35;;;;;;;6.85;4.47;;;22.00;57.70;;;;;;5073680;28;20204;-60
2023/01/25 08:01:25;;;;;;;9.00;4.97;;;22.10;57.80;;;;;;5073277;28;20633;-61
2023/01/25 08:04:14;;;;;;;7.40;4.72;;;22.00;57.70;;;;;;5073559;28;20221;-63
2023/01/25 08:07:02;;;;;;;10.00;4.53;;;22.10;57.80;;;;;;5084360;28;20579;-61
2023/01/25 08:09:51;;;;;;;9.65;5.10;;;22.10;57.80;;;;;;5088722;28;20281;-61
2023/01/25 08:12:39;;;;;;;9.95;5.25;;;22.10;57.80;;;;;;5078807;28;20196;-61
2023/01/25 08:15:27;;;;;;;6.55;4.25;;;22.10;57.80;;;;;;5073300;28;20282;-61
2023/01/25 08:18:15;;;;;;;12.23;5.13;;;22.10;57.80;;;;;;5073724;28;20345;-61
2023/01/25 08:21:05;;;;;;;7.20;4.60;;;22.10;57.80;;;;;;5072729;28;20197;-61
2023/01/25 08:23:53;;;;;;;8.52;4.65;;;22.10;57.80;;;;;;5072317;28;20839;-61
2023/01/25 08:26:42;;;;;;;9.48;4.82;;;22.10;57.70;;;;;;5073393;28;20708;-61
2023/01/25 08:29:30;;;;;;;8.90;5.22;;;22.10;57.80;;;;;;5073365;28;20224;-61
2023/01/25 08:32:18;;;;;;;9.15;4.75;;;22.00;57.90;;;;;;5073192;28;20247;-61
2023/01/25 08:35:07;;;;;;;13.50;6.13;;;22.00;58.00;;;;;;5072607;28;20321;-61
2023/01/25 08:37:57;;;;;;;10.65;4.53;;;22.00;58.00;;;;;;5073272;28;20203;-61
2023/01/25 08:40:45;;;;;;;9.55;5.03;;;22.00;58.40;;;;;;5073047;28;20290;-61
2023/01/25 08:43:34;;;;;;;12.07;6.05;;;22.00;58.80;;;;;;5073839;28;20216;-61
2023/01/25 08:46:24;;;;;;;7.68;4.65;;;22.00;58.90;;;;;;5072096;28;20208;-63
2023/01/25 08:49:12;;;;;;;8.32;5.13;;;22.00;59.10;;;;;;5072382;28;20288;-62
2023/01/25 08:52:00;;;;;;;7.90;4.95;;;22.00;59.10;;;;;;5071669;28;20299;-61
2023/01/25 08:54:49;;;;;;;10.25;5.40;;;22.00;59.00;;;;;;5072603;28;20324;-62
2023/01/25 08:57:37;;;;;;;9.57;5.43;;;22.00;59.10;;;;;;5073408;28;20706;-61
2023/01/25 09:00:25;;;;;;;9.48;4.82;;;22.00;59.10;;;;;;5070377;28;20270;-61
2023/01/25 09:03:13;;;;;;;6.60;5.28;;;22.10;59.10;;;;;;5072863;28;20784;-61
2023/01/25 09:06:01;;;;;;;7.38;5.20;;;22.10;59.00;;;;;;5093444;28;20228;-61
2023/01/25 09:08:49;;;;;;;18.67;6.07;;;22.20;59.10;;;;;;5092039;28;20694;-61
2023/01/25 09:11:39;;;;;;;12.75;5.75;;;22.20;59.00;;;;;;5091915;28;20304;-61
2023/01/25 09:14:27;;;;;;;12.52;5.45;;;22.20;58.90;;;;;;5094128;28;20220;-61
2023/01/25 09:17:15;;;;;;;11.52;6.18;;;22.30;58.90;;;;;;5092894;28;20581;-61
2023/01/25 09:20:04;;;;;;;11.57;5.75;;;22.30;58.80;;;;;;5091575;28;20720;-61
2023/01/25 09:22:52;;;;;;;10.55;5.38;;;22.50;62.90;;;;;;5092440;28;20204;-60
2023/01/25 09:25:40;;;;;;;9.73;5.63;;;22.30;58.70;;;;;;5092796;28;20337;-60
2023/01/25 09:28:31;;;;;;;9.80;5.28;;;22.30;58.60;;;;;;5093530;28;20680;-60
2023/01/25 09:31:20;;;;;;;9.20;5.28;;;22.30;58.50;;;;;;5089501;28;20220;-60
2023/01/25 09:34:14;;;;;;;7.43;4.80;;;22.20;58.50;;;;;;5121219;22;20237;-58
2023/01/25 09:37:02;;;;;;;14.00;5.90;;;22.20;58.50;;;;;;5114782;28;20195;-58
2023/01/25 09:39:50;;;;;;;11.45;5.63;;;22.20;58.50;;;;;;5112596;28;20663;-59
2023/01/25 09:42:57;;;;;;;11.80;6.13;;;22.20;58.60;;;;;;5112726;28;20191;-58
2023/01/25 09:45:47;;;;;;;12.80;6.63;;;22.10;58.60;;;;;;5108189;28;20239;-60
2023/01/25 09:48:43;;;;;;;9.93;6.28;;;22.10;58.60;;;;;;5093705;28;20200;-60
2023/01/25 09:51:45;;;;;;;11.45;6.00;;;22.20;58.80;;;;;;5093998;28;20699;-59
2023/01/25 09:54:38;;;;;;;11.50;6.15;;;22.10;58.60;;;;;;5101136;28;20217;-59
2023/01/25 09:57:37;;;;;;;12.82;6.05;;;22.10;58.70;;;;;;5104433;28;20192;-59
2023/01/25 10:00:31;;;;;;;11.10;6.28;;;22.10;58.60;;;;;;5093876;28;20273;-59
2023/01/25 10:03:25;;;;;;;10.15;6.45;;;22.20;58.60;;;;;;5093555;28;20222;-59
2023/01/25 10:06:16;;;;;;;8.55;6.55;;;22.20;58.60;;;;;;5092760;28;20200;-59
2023/01/25 10:09:14;;;;;;;16.15;6.75;;;22.20;58.50;;;;;;5093681;28;20202;-59
2023/01/25 10:12:12;;;;;;;9.48;5.57;;;22.30;58.40;;;;;;5102534;28;20223;-59
2023/01/25 10:15:00;;;;;;;11.30;6.32;;;22.30;58.50;;;;;;5101031;28;20571;-59
2023/01/25 10:17:57;;;;;;;10.18;6.05;;;22.30;58.40;;;;;;5101422;28;20199;-59
2023/01/25 10:20:53;;;;;;;10.30;6.95;;;22.30;58.50;;;;;;5101885;28;20327;-60
2023/01/25 10:24:05;;;;;;;11.77;6.20;;;22.30;58.10;;;;;;5099676;28;20187;-59
2023/01/25 10:26:56;;;;;;;12.38;6.15;;;22.30;58.40;;;;;;5104023;28;20577;-59
2023/01/25 10:29:45;;;;;;;10.18;6.13;;;22.30;58.40;;;;;;5110602;28;20358;-60
2023/01/25 10:32:34;;;;;;;7.18;5.38;;;22.30;58.30;;;;;;5113493;28;20225;-60
2023/01/25 10:35:36;;;;;;;10.13;6.20;;;22.30;58.30;;;;;;5112745;28;20249;-60
2023/01/25 10:38:35;;;;;;;10.43;6.47;;;22.30;58.20;;;;;;5113228;28;20195;-60
2023/01/25 10:41:28;;;;;;;16.13;6.63;;;22.30;58.20;;;;;;5113345;28;20214;-60
2023/01/25 10:44:23;;;;;;;11.48;6.60;;;22.40;58.40;;;;;;5094977;28;20212;-59
2023/01/25 10:47:17;;;;;;;8.95;6.55;;;22.30;58.20;;;;;;5093163;28;20704;-59
2023/01/25 10:50:06;;;;;;;9.27;6.10;;;22.30;58.20;;;;;;5092305;28;20208;-59
2023/01/25 10:52:58;;;;;;;10.20;6.45;;;22.30;58.20;;;;;;5092948;28;20212;-59
2023/01/25 10:55:57;;;;;;;14.07;6.85;;;22.30;58.30;;;;;;5093552;28;20353;-59
2023/01/25 10:58:48;;;;;;;10.88;7.45;;;22.30;58.30;;;;;;5091972;28;20199;-60
2023/01/25 11:01:37;;;;;;;12.98;7.05;;;22.30;58.20;;;;;;5112996;28;20311;-60
2023/01/25 11:04:32;;;;;;;11.00;7.18;;;22.30;58.20;;;;;;5113114;28;20215;-60
2023/01/25 11:07:27;;;;;;;9.50;6.15;;;22.30;58.30;;;;;;5112424;28;20282;-59
2023/01/25 11:10:28;;;;;;;14.90;6.78;;;22.30;58.30;;;;;;5112076;28;20288;-60
2023/01/25 11:13:24;;;;;;;16.17;7.72;;;22.30;58.10;;;;;;5103639;28;20226;-60
2023/01/25 11:16:22;;;;;;;10.38;6.10;;;22.30;58.20;;;;;;5103171;28;20230;-59
2023/01/25 11:19:26;;;;;;;10.50;7.05;;;22.30;58.10;;;;;;5103990;28;20223;-59
2023/01/25 11:22:23;;;;;;;12.30;6.65;;;22.20;58.10;;;;;;5106806;28;20195;-61
2023/01/25 11:25:29;;;;;;;45.22;12.52;;;22.20;58.90;;;;;;5110285;28;20219;-60
2023/01/25 11:28:21;;;;;;;46.78;11.25;;;22.10;58.20;;;;;;5108563;28;20210;-59
2023/01/25 11:31:12;;;;;;;26.10;9.73;;;22.10;58.20;;;;;;5091383;28;20729;-60
2023/01/25 11:34:00;;;;;;;16.00;7.68;;;22.10;58.20;;;;;;5092378;28;20216;-60
2023/01/25 11:37:11;;;;;;;17.98;7.72;;;22.10;58.20;;;;;;5092077;28;20286;-59
2023/01/25 11:40:11;;;;;;;15.50;7.32;;;22.10;58.20;;;;;;5092394;28;20713;-62
2023/01/25 11:43:12;;;;;;;13.35;7.05;;;22.20;58.40;;;;;;5102737;28;20858;-60
2023/01/25 11:46:26;;;;;;;13.40;7.30;;;22.20;58.30;;;;;;5115660;28;20675;-60
2023/01/25 11:49:27;;;;;;;12.18;6.65;;;22.20;58.10;;;;;;5116561;28;20759;-59
2023/01/25 11:52:26;;;;;;;15.02;7.53;;;22.30;58.20;;;;;;5116553;28;20674;-60
2023/01/25 11:55:24;;;;;;;14.52;7.35;;;22.30;58.10;;;;;;5115862;28;20219;-60
2023/01/25 11:58:24;;;;;;;11.70;7.97;;;22.30;58.10;;;;;;5115523;28;20722;-61
2023/01/25 12:01:20;;;;;;;9.10;6.22;;;22.30;58.00;;;;;;5115989;28;20279;-60
2023/01/25 12:04:45;;;;;;;10.82;7.22;;;22.30;58.00;;;;;;5115287;28;20222;-60
2023/01/25 12:07:41;;;;;;;16.40;7.40;;;22.30;58.00;;;;;;5115541;28;20205;-60
2023/01/25 12:10:41;;;;;;;12.18;7.80;;;22.30;58.00;;;;;;5114882;28;20205;-59
2023/01/25 12:13:39;;;;;;;11.73;7.13;;;22.30;57.90;;;;;;5115823;28;20221;-59
2023/01/25 12:16:46;;;;;;;10.02;6.40;;;22.30;57.90;;;;;;5116640;28;20195;-60
2023/01/25 12:19:53;;;;;;;9.60;7.30;;;22.30;57.90;;;;;;5114917;28;20210;-60
2023/01/25 12:22:57;;;;;;;12.73;7.05;;;22.20;57.90;;;;;;5115763;28;20282;-60
2023/01/25 12:25:56;;;;;;;10.57;6.07;;;22.20;57.90;;;;;;5115196;28;20597;-59
2023/01/25 12:28:49;;;;;;;13.80;7.00;;;22.20;57.90;;;;;;5114739;28;20283;-59
2023/01/25 12:31:43;;;;;;;17.77;7.38;;;22.20;58.20;;;;;;5115356;28;20274;-59
2023/01/25 12:34:36;;;;;;;14.32;7.30;;;22.10;58.10;;;;;;5115518;28;20262;-60
2023/01/25 12:37:29;;;;;;;10.55;7.10;;;22.20;58.30;;;;;;5115416;28;20227;-60
2023/01/25 12:40:25;;;;;;;10.73;6.10;;;22.10;58.30;;;;;;5114661;28;20278;-60
2023/01/25 12:43:18;;;;;;;12.98;6.68;;;22.20;59.10;;;;;;5105981;28;20207;-59
2023/01/25 12:46:13;;;;;;;11.35;6.90;;;22.20;58.30;;;;;;5095359;28;20668;-60
2023/01/25 12:49:08;;;;;;;14.10;7.72;;;22.10;58.30;;;;;;5095393;28;20681;-60
2023/01/25 12:51:58;;;;;;;13.75;6.63;;;22.20;58.30;;;;;;5094795;28;20736;-60
2023/01/25 12:54:48;;;;;;;12.05;6.55;;;22.10;58.10;;;;;;5102044;28;20242;-60
2023/01/25 12:57:43;;;;;;;10.98;7.53;;;22.10;58.10;;;;;;5102954;28;20220;-59
2023/01/25 13:00:39;;;;;;;10.73;7.00;;;22.10;58.30;;;;;;5105440;28;20282;-59
2023/01/25 13:03:34;;;;;;;12.90;6.93;;;22.10;58.20;;;;;;5094606;28;20195;-60
2023/01/25 13:06:31;;;;;;;12.10;7.40;;;22.10;58.30;;;;;;5094594;28;20272;-60
2023/01/25 13:09:26;;;;;;;14.10;6.70;;;22.10;58.30;;;;;;5093999;28;20200;-60
2023/01/25 13:12:14;;;;;;;10.73;6.78;;;22.20;58.40;;;;;;5111697;28;20195;-61
2023/01/25 13:15:02;;;;;;;10.32;6.60;;;22.20;58.40;;;;;;5112687;28;20712;-59
2023/01/25 13:17:50;;;;;;;9.73;6.28;;;22.20;58.30;;;;;;5115312;28;20278;-59
2023/01/25 13:20:51;;;;;;;11.60;6.85;;;22.30;58.30;;;;;;5112918;28;20226;-60
2023/01/25 13:23:45;;;;;;;9.63;6.35;;;22.50;58.00;;;;;;5113760;28;20195;-60
2023/01/25 13:26:47;;;;;;;13.38;7.28;;;22.40;58.20;;;;;;5114976;28;20191;-60
2023/01/25 13:29:57;;;;;;;8.48;5.78;;;22.40;58.00;;;;;;5101665;28;20214;-59
2023/01/25 13:33:05;;;;;;;11.80;6.90;;;22.40;57.90;;;;;;5102684;28;20192;-60
2023/01/25 13:35:54;;;;;;;14.23;6.50;;;22.40;57.80;;;;;;5101408;28;20261;-59
2023/01/25 13:38:43;;;;;;;11.85;6.78;;;22.40;57.70;;;;;;5099406;28;20601;-60
2023/01/25 13:41:31;;;;;;;33.88;9.98;;;22.40;57.80;;;;;;5107749;28;20238;-60
2023/01/25 13:44:27;;;;;;;18.88;7.18;;;22.40;57.80;;;;;;5104321;28;20220;-61
2023/01/25 13:47:20;;;;;;;16.98;6.90;;;22.30;57.70;;;;;;5107422;28;20305;-60
2023/01/25 13:50:20;;;;;;;15.13;6.35;;;22.40;57.80;;;;;;5113636;28;20194;-60
2023/01/25 13:53:32;;;;;;;10.75;6.35;;;22.40;57.80;;;;;;5113351;28;20595;-61
2023/01/25 13:56:33;;;;;;;10.45;5.75;;;22.30;57.90;;;;;;5100530;28;20617;-60
2023/01/25 13:59:29;;;;;;;9.55;6.00;;;22.30;57.80;;;;;;5109051;28;20203;-59
2023/01/25 14:02:22;;;;;;;14.55;5.97;;;22.30;57.90;;;;;;5103169;28;20220;-59
2023/01/25 14:05:19;;;;;;;9.65;5.82;;;22.30;58.00;;;;;;5088954;28;20557;-60
2023/01/25 14:08:11;;;;;;;8.95;5.85;;;22.30;58.00;;;;;;5092778;28;20192;-59
2023/01/25 14:11:03;;;;;;;9.10;6.38;;;22.30;57.90;;;;;;5092127;28;20204;-59
2023/01/25 14:14:15;;;;;;;8.82;6.30;;;22.40;61.00;;;;;;5093349;28;20579;-60
2023/01/25 14:17:17;;;;;;;7.80;5.47;;;22.30;57.90;;;;;;5093342;28;20196;-59
2023/01/25 14:20:18;;;;;;;9.43;5.15;;;22.30;57.90;;;;;;5093592;28;20591;-59
2023/01/25 14:23:26;;;;;;;8.52;5.68;;;22.30;57.90;;;;;;5093585;28;20214;-59
2023/01/25 14:26:28;;;;;;;7.85;5.75;;;22.30;57.90;;;;;;5092772;28;20202;-60
2023/01/25 14:29:21;;;;;;;11.32;5.55;;;22.30;57.90;;;;;;5092948;28;20203;-60
2023/01/25 14:32:24;;;;;;;9.88;5.60;;;22.40;57.90;;;;;;5094001;28;20191;-60
2023/01/25 14:35:37;;;;;;;10.63;5.97;;;22.40;58.00;;;;;;5106567;28;20223;-60
2023/01/25 14:38:43;;;;;;;9.48;6.05;;;22.40;57.90;;;;;;5113480;28;20226;-60
2023/01/25 14:41:36;;;;;;;9.05;5.80;;;22.40;57.80;;;;;;5113019;28;20282;-59
2023/01/25 14:44:33;;;;;;;10.57;5.72;;;22.40;57.90;;;;;;5108723;28;20650;-59
2023/01/25 14:47:30;;;;;;;8.55;5.90;;;22.40;57.80;;;;;;5107920;28;20195;-59
2023/01/25 14:50:33;;;;;;;9.30;5.32;;;22.40;57.80;;;;;;5111350;28;20274;-59
2023/01/25 14:53:25;;;;;;;9.02;5.57;;;22.40;57.80;;;;;;5112427;28;20211;-62